Newtonhill, United Kingdom
Current Conditions -  °F | °C
As of 7:50 AM on Wednesday 22 Oct 2014 (Local Time) from EGPD Reporting Station
Broken Clouds Broken Clouds  
Wind Chill: 41°   Ceiling: 4300
Heat Index: 45°   Visibility: 6mi
Dew Point: 39°   Wind: 7mph
Humidity: 81%   Direction: 250°WSW
Pressure: 30"   Gusts: NA
Location:  57.03°N, 2.15°W
Report Text: EGPD 220650Z 25006KT 210V280 9999 BKN043 07/04 Q1016 NOSIG
Loading
Personal Weather Stations






























Interactive Weather Map New forecast layout! Learn more

10-Day Weather Forecast

Advertisements
Track Severe Weather on mobile